Garoga, New York
Current Conditions -  °F | °C
As of 4:35 PM on Thursday 23 Oct 2014 (Local Time) from KNY0 Reporting Station
Overcast Overcast  
Wind Chill: 45°   Ceiling: 2100
Heat Index: 47°   Visibility: 10mi
Dew Point: 45°   Wind: 5mph
Humidity: 90%   Direction: 360°N
Pressure: 29.83"   Gusts: NA
Location:  43.0176°N, 74.3982°W
Report Text: KNY0 232035Z AUTO 36004KT 10SM BKN021 BKN032 OVC047 09/07 A2983 RMK AO2 P0002 T00850070
Loading
Personal Weather Stations






























Interactive Weather Map
Tropical Storm Tracking
New forecast layout! Learn more

10-Day Weather Forecast

Advertisements
Track Severe Weather on mobile